Time;durP1;ratioP1;P1;durP2;ratioP2;P2;SDS_P1;SDS_P2;PMS_P1;PMS_P2;Temp;Humidity;BMP_temperature;BMP_pressure;BME280_temperature;BME280_humidity;BME280_pressure;Samples;Min_cycle;Max_cycle;Signal;HPM_P1;HPM_P2
2021/08/19 00:02:56;;;;;;;2.92;1.77;;;;;;;15.09;100.00;100883.47;6248909;28;20049;-76
2021/08/19 00:05:57;;;;;;;3.42;1.88;;;;;;;15.15;100.00;100888.31;6248081;28;20053;-77
2021/08/19 00:08:58;;;;;;;2.58;1.63;;;;;;;15.12;100.00;100879.75;6248789;28;20061;-77
2021/08/19 00:12:01;;;;;;;1.70;1.40;;;;;;;15.15;100.00;100876.88;6248781;28;20056;-77
2021/08/19 00:15:02;;;;;;;2.38;1.80;;;;;;;15.12;100.00;100882.38;6248379;28;20520;-77
2021/08/19 00:18:05;;;;;;;3.67;1.85;;;;;;;15.12;100.00;100879.75;6248768;28;20053;-77
2021/08/19 00:21:08;;;;;;;2.65;1.52;;;;;;;15.13;100.00;100878.81;6248025;28;20521;-77
2021/08/19 00:24:10;;;;;;;3.63;1.90;;;;;;;15.19;100.00;100881.03;6247936;28;20053;-78
2021/08/19 00:27:11;;;;;;;2.45;1.65;;;;;;;15.16;100.00;100881.22;6248280;28;20607;-78
2021/08/19 00:30:13;;;;;;;3.40;1.77;;;;;;;15.14;100.00;100870.75;6248333;28;20056;-77
2021/08/19 00:33:16;;;;;;;2.80;1.67;;;;;;;15.15;100.00;100868.94;6248204;28;20439;-78
2021/08/19 00:36:17;;;;;;;3.15;1.95;;;;;;;15.22;100.00;100875.53;6247739;28;20060;-78
2021/08/19 00:39:19;;;;;;;4.00;2.08;;;;;;;15.19;100.00;100865.97;6247856;28;20045;-78
2021/08/19 00:42:20;;;;;;;2.97;2.58;;;;;;;15.18;100.00;100860.81;6247609;28;20060;-78
2021/08/19 00:45:22;;;;;;;4.57;2.97;;;;;;;15.18;100.00;100861.66;6247719;28;20050;-77
2021/08/19 00:48:24;;;;;;;6.43;2.53;;;;;;;15.18;100.00;100864.28;6247721;28;20199;-78
2021/08/19 00:51:30;;;;;;;4.38;2.38;;;;;;;15.19;100.00;100862.50;6247923;28;20050;-77
2021/08/19 00:54:31;;;;;;;3.65;2.47;;;;;;;15.20;100.00;100867.66;6247304;28;20511;-78
2021/08/19 00:57:32;;;;;;;4.40;2.38;;;;;;;15.21;100.00;100864.09;6247294;28;20438;-77
2021/08/19 01:00:34;;;;;;;4.35;2.33;;;;;;;15.16;100.00;100868.00;6247323;28;20052;-77
2021/08/19 01:03:37;;;;;;;6.38;2.50;;;;;;;15.26;100.00;100866.41;6247470;28;20057;-77
2021/08/19 01:06:39;;;;;;;4.03;2.55;;;;;;;15.26;100.00;100873.47;6248229;28;20052;-77
2021/08/19 01:09:42;;;;;;;4.57;2.72;;;;;;;15.32;100.00;100868.59;6247752;28;20049;-77
2021/08/19 01:12:45;;;;;;;4.75;2.75;;;;;;;15.31;100.00;100874.88;6247546;28;20053;-77
2021/08/19 01:15:46;;;;;;;5.50;3.03;;;;;;;15.33;100.00;100875.59;6246917;28;20056;-77
2021/08/19 01:18:50;;;;;;;5.30;2.78;;;;;;;15.33;100.00;100869.44;6247315;28;20049;-77
2021/08/19 01:21:53;;;;;;;5.32;2.90;;;;;;;15.32;100.00;100875.72;6246958;28;20049;-77
2021/08/19 01:24:54;;;;;;;6.10;3.08;;;;;;;15.31;100.00;100868.72;6246896;28;20057;-77
2021/08/19 01:27:57;;;;;;;6.53;3.45;;;;;;;15.30;100.00;100880.25;6247459;28;20091;-77
2021/08/19 01:30:59;;;;;;;4.50;3.33;;;;;;;15.31;100.00;100876.66;6247485;28;20052;-77
2021/08/19 01:34:00;;;;;;;4.43;2.60;;;;;;;15.31;100.00;100877.50;6246660;28;20064;-77
2021/08/19 01:37:02;;;;;;;5.60;3.30;;;;;;;15.31;100.00;100879.31;6247426;28;20496;-77
2021/08/19 01:40:04;;;;;;;6.18;3.92;;;;;;;15.32;100.00;100883.66;6247365;28;20045;-78
2021/08/19 01:43:09;;;;;;;8.30;3.30;;;;;;;15.32;100.00;100883.66;6247065;28;20056;-77
2021/08/19 01:46:12;;;;;;;5.40;3.20;;;;;;;15.34;100.00;100881.72;6247202;28;20489;-77
2021/08/19 01:49:14;;;;;;;6.90;3.35;;;;;;;15.38;100.00;100884.03;6251474;28;20451;-78
2021/08/19 01:52:15;;;;;;;9.32;3.28;;;;;;;15.40;100.00;100884.81;6251767;28;20056;-79
2021/08/19 01:55:16;;;;;;;8.05;3.55;;;;;;;15.32;100.00;100879.19;6251571;28;20053;-78
2021/08/19 01:58:20;;;;;;;6.75;3.15;;;;;;;15.27;100.00;100877.84;6251726;28;20432;-78
2021/08/19 02:01:22;;;;;;;6.82;3.50;;;;;;;15.15;100.00;100871.59;6251764;28;20049;-78
2021/08/19 02:04:24;;;;;;;8.32;3.90;;;;;;;15.16;100.00;100870.63;6251302;28;20045;-77
2021/08/19 02:07:25;;;;;;;5.30;3.03;;;;;;;15.21;100.00;100865.84;6251018;28;20054;-77
2021/08/19 02:10:27;;;;;;;9.13;4.63;;;;;;;15.19;100.00;100862.50;6251073;28;20493;-77
2021/08/19 02:13:29;;;;;;;7.95;3.92;;;;;;;15.18;100.00;100869.59;6250843;28;20056;-77
2021/08/19 02:16:31;;;;;;;7.75;3.58;;;;;;;15.19;100.00;100865.97;6250893;28;20072;-76
2021/08/19 02:19:32;;;;;;;5.75;3.53;;;;;;;15.21;100.00;100855.28;6250505;28;20428;-77
2021/08/19 02:22:33;;;;;;;7.22;3.65;;;;;;;15.18;100.00;100847.56;6250689;28;20082;-77
2021/08/19 02:25:35;;;;;;;5.45;3.40;;;;;;;15.24;100.00;100849.75;6249450;28;20052;-77
2021/08/19 02:28:37;;;;;;;4.85;2.90;;;;;;;15.20;100.00;100848.28;6263807;28;20040;-77
2021/08/19 02:31:41;;;;;;;6.10;3.13;;;;;;;15.23;100.00;100850.72;6264114;28;20048;-77
2021/08/19 02:34:43;;;;;;;4.43;3.00;;;;;;;15.22;100.00;100854.34;6269079;28;20061;-77
2021/08/19 02:37:44;;;;;;;5.93;3.08;;;;;;;15.26;100.00;100850.53;6264958;28;20053;-77
2021/08/19 02:40:45;;;;;;;5.18;3.17;;;;;;;15.25;100.00;100854.09;6274827;28;20048;-76
2021/08/19 02:43:48;;;;;;;6.38;3.22;;;;;;;15.25;100.00;100845.31;6274944;28;20052;-77
2021/08/19 02:46:49;;;;;;;5.45;3.22;;;;;;;15.27;100.00;100854.00;6274755;28;20049;-77
2021/08/19 02:49:51;;;;;;;9.93;3.58;;;;;;;15.29;100.00;100849.44;6264622;28;20045;-77
2021/08/19 02:52:52;;;;;;;4.88;2.88;;;;;;;15.32;100.00;100852.72;6273951;28;20500;-77
2021/08/19 02:55:54;;;;;;;7.25;3.20;;;;;;;15.41;100.00;100843.28;6274787;28;20056;-79
2021/08/19 02:58:56;;;;;;;6.00;2.97;;;;;;;15.38;100.00;100840.84;6274778;28;20056;-78
2021/08/19 03:01:58;;;;;;;5.13;2.95;;;;;;;15.32;100.00;100838.63;6275391;28;20514;-77
2021/08/19 03:05:00;;;;;;;7.90;3.75;;;;;;;15.34;100.00;100839.34;6274837;28;20052;-78
2021/08/19 03:08:01;;;;;;;6.55;4.10;;;;;;;15.36;100.00;100840.13;6259649;28;20057;-77
2021/08/19 03:11:02;;;;;;;8.05;3.95;;;;;;;15.40;100.00;100838.94;6275106;28;20045;-78
2021/08/19 03:14:05;;;;;;;5.30;3.15;;;;;;;15.36;100.00;100843.59;6274665;28;20053;-77
2021/08/19 03:17:07;;;;;;;6.28;2.70;;;;;;;15.36;100.00;100832.16;6274696;28;20064;-77
2021/08/19 03:20:11;;;;;;;7.60;3.53;;;;;;;15.35;100.00;100833.09;6274285;28;20044;-77
2021/08/19 03:23:12;;;;;;;8.15;3.42;;;;;;;15.33;100.00;100833.22;6274287;28;20045;-77
2021/08/19 03:26:15;;;;;;;6.55;3.40;;;;;;;15.37;100.00;100832.03;6273947;28;20639;-77
2021/08/19 03:29:17;;;;;;;4.75;2.67;;;;;;;15.34;100.00;100831.41;6273917;28;20045;-76
2021/08/19 03:32:19;;;;;;;5.05;3.08;;;;;;;15.35;100.00;100835.75;6274143;28;20045;-77
2021/08/19 03:35:21;;;;;;;5.25;3.42;;;;;;;15.33;100.00;100833.22;6273669;28;20135;-77
2021/08/19 03:38:22;;;;;;;5.18;2.80;;;;;;;15.36;100.00;100830.38;6273875;28;20543;-77
2021/08/19 03:41:23;;;;;;;8.82;3.60;;;;;;;15.32;100.00;100830.69;6273892;28;20052;-77
2021/08/19 03:44:26;;;;;;;7.60;3.80;;;;;;;15.33;100.00;100835.88;6252787;28;20049;-77
2021/08/19 03:47:27;;;;;;;5.93;3.63;;;;;;;15.30;100.00;100838.72;6240257;28;20520;-77
2021/08/19 03:50:29;;;;;;;5.13;2.83;;;;;;;15.33;100.00;100830.56;6239226;28;20049;-77
2021/08/19 03:53:30;;;;;;;4.65;3.10;;;;;;;15.31;100.00;100832.50;6244450;28;20057;-77
2021/08/19 03:56:35;;;;;;;4.70;2.88;;;;;;;15.32;100.00;100838.63;6224979;28;20050;-77
2021/08/19 03:59:37;;;;;;;4.63;2.92;;;;;;;15.34;100.00;100836.72;6224044;28;20085;-77
2021/08/19 04:02:39;;;;;;;5.22;2.75;;;;;;;15.33;100.00;100840.31;6224243;28;20516;-77
2021/08/19 04:05:40;;;;;;;7.65;3.33;;;;;;;15.33;100.00;100838.50;6223798;28;20057;-77
2021/08/19 04:08:42;;;;;;;6.53;2.83;;;;;;;15.32;100.00;100842.13;6223802;28;20046;-77
2021/08/19 04:11:43;;;;;;;5.60;3.22;;;;;;;15.32;100.00;100839.47;6223254;28;20052;-77
2021/08/19 04:14:46;;;;;;;5.78;3.00;;;;;;;15.29;100.00;100844.97;6223965;28;20050;-77
2021/08/19 04:17:48;;;;;;;9.77;2.63;;;;;;;15.30;100.00;100849.31;6224852;28;20421;-77
2021/08/19 04:20:49;;;;;;;6.75;3.10;;;;;;;15.37;100.00;100849.75;6224298;28;20042;-78
2021/08/19 04:23:50;;;;;;;5.85;2.60;;;;;;;15.38;100.00;100848.78;6224169;28;20054;-78
2021/08/19 04:26:52;;;;;;;7.10;2.80;;;;;;;15.36;100.00;100851.56;6235295;28;20049;-77
2021/08/19 04:29:54;;;;;;;5.18;3.15;;;;;;;15.37;100.00;100847.94;6227204;28;20050;-77
2021/08/19 04:32:56;;;;;;;4.88;2.63;;;;;;;15.36;100.00;100853.34;6223798;28;20053;-77
2021/08/19 04:35:57;;;;;;;5.78;3.63;;;;;;;15.39;100.00;100855.75;6231406;28;20056;-78
2021/08/19 04:38:59;;;;;;;5.90;3.30;;;;;;;15.34;100.00;100860.53;6242561;28;20160;-77
2021/08/19 04:42:00;;;;;;;6.47;3.15;;;;;;;15.36;100.00;100856.00;6248189;28;20401;-78
2021/08/19 04:45:03;;;;;;;6.32;3.72;;;;;;;15.35;100.00;100865.75;6247681;28;20049;-77
2021/08/19 04:48:05;;;;;;;6.18;3.35;;;;;;;15.35;100.00;100859.59;6238740;28;20460;-77
2021/08/19 04:51:07;;;;;;;4.55;2.55;;;;;;;15.32;100.00;100858.00;6229307;28;20049;-77
2021/08/19 04:54:09;;;;;;;4.18;2.90;;;;;;;15.33;100.00;100865.00;6235429;28;20057;-77
2021/08/19 04:57:10;;;;;;;4.18;3.00;;;;;;;15.35;100.00;100856.94;6247681;28;20059;-78
2021/08/19 05:00:14;;;;;;;4.05;2.72;;;;;;;15.35;100.00;100863.09;6247709;28;20099;-77
2021/08/19 05:03:16;;;;;;;3.80;2.45;;;;;;;15.38;100.00;100862.88;6248327;28;20056;-77
2021/08/19 05:06:17;;;;;;;6.13;2.67;;;;;;;15.37;100.00;100863.81;6248102;28;20049;-78
2021/08/19 05:09:19;;;;;;;4.85;3.00;;;;;;;15.36;100.00;100869.25;6248078;28;20053;-78
2021/08/19 05:12:20;;;;;;;4.13;2.50;;;;;;;15.42;100.00;100864.34;6247863;28;20049;-78
2021/08/19 05:15:23;;;;;;;4.18;2.55;;;;;;;15.39;100.00;100861.91;6246936;28;20053;-78
2021/08/19 05:18:27;;;;;;;3.53;2.25;;;;;;;15.38;100.00;100869.97;6247096;28;20049;-77
2021/08/19 05:21:29;;;;;;;5.40;3.08;;;;;;;15.45;100.00;100877.38;6247027;28;20053;-78
2021/08/19 05:24:30;;;;;;;4.30;2.55;;;;;;;15.43;100.00;100870.47;6247543;28;20053;-77
2021/08/19 05:27:31;;;;;;;4.95;2.80;;;;;;;15.45;100.00;100881.81;6247146;28;20055;-77
2021/08/19 05:30:34;;;;;;;6.82;3.63;;;;;;;15.43;100.00;100881.06;6247234;28;20424;-77
2021/08/19 05:33:36;;;;;;;4.50;2.65;;;;;;;15.45;100.00;100882.66;6246893;28;20057;-78
2021/08/19 05:36:37;;;;;;;7.25;3.10;;;;;;;15.47;100.00;100882.53;6247167;28;20057;-78
2021/08/19 05:39:39;;;;;;;4.68;2.72;;;;;;;15.47;100.00;100888.69;6246806;28;20049;-78
2021/08/19 05:42:40;;;;;;;5.00;2.90;;;;;;;15.43;100.00;100887.22;6247130;28;20053;-78
2021/08/19 05:45:43;;;;;;;5.38;2.88;;;;;;;15.45;100.00;100887.13;6246996;28;20045;-77
2021/08/19 05:48:44;;;;;;;5.18;2.85;;;;;;;15.45;100.00;100889.78;6247108;28;20056;-78
2021/08/19 05:51:45;;;;;;;4.50;2.30;;;;;;;15.48;100.00;100889.53;6246834;28;20669;-78
2021/08/19 05:54:46;;;;;;;4.20;2.65;;;;;;;15.48;100.00;100886.88;6246557;28;20046;-78
2021/08/19 05:57:50;;;;;;;5.50;2.97;;;;;;;15.45;100.00;100893.25;6246978;28;20049;-78
2021/08/19 06:00:53;;;;;;;5.50;2.58;;;;;;;15.46;100.00;100897.59;6246862;28;20135;-78
2021/08/19 06:03:54;;;;;;;5.00;2.67;;;;;;;15.46;100.00;100899.41;6246270;28;20401;-78
2021/08/19 06:06:56;;;;;;;4.28;2.75;;;;;;;15.46;100.00;100905.53;6246635;28;20660;-78
2021/08/19 06:09:57;;;;;;;4.95;2.70;;;;;;;15.47;100.00;100911.69;6247168;28;20045;-77
2021/08/19 06:12:58;;;;;;;4.35;2.30;;;;;;;15.48;100.00;100911.56;6246879;28;20049;-77
2021/08/19 06:16:01;;;;;;;4.13;2.58;;;;;;;15.49;100.00;100912.44;6247552;28;20053;-77
2021/08/19 06:19:03;;;;;;;5.95;2.95;;;;;;;15.47;100.00;100924.94;6246920;28;20421;-77
2021/08/19 06:22:04;;;;;;;4.10;2.55;;;;;;;15.45;100.00;100925.03;6246132;28;20482;-77
2021/08/19 06:25:07;;;;;;;4.78;3.00;;;;;;;15.42;100.00;100925.25;6245860;28;20050;-77
2021/08/19 06:28:08;;;;;;;6.05;2.95;;;;;;;15.43;100.00;100924.28;6239581;28;20053;-77
2021/08/19 06:31:12;;;;;;;8.95;2.88;;;;;;;15.44;100.00;100925.13;6240951;28;20057;-78
2021/08/19 06:34:13;;;;;;;4.95;2.72;;;;;;;15.46;100.00;100928.53;6223645;28;20049;-78
2021/08/19 06:37:15;;;;;;;5.72;2.97;;;;;;;15.41;100.00;100930.66;6235824;28;20049;-77
2021/08/19 06:40:16;;;;;;;6.53;3.28;;;;;;;15.46;100.00;100931.19;6231553;28;20057;-77
2021/08/19 06:43:17;;;;;;;5.10;3.42;;;;;;;15.51;100.00;100929.06;6224088;28;20050;-78
2021/08/19 06:46:20;;;;;;;4.85;2.80;;;;;;;15.41;100.00;100936.81;6223258;28;20417;-77
2021/08/19 06:49:21;;;;;;;3.55;2.50;;;;;;;15.29;100.00;100939.47;6234700;28;20068;-77
2021/08/19 06:52:23;;;;;;;5.13;3.53;;;;;;;15.29;100.00;100939.47;6249488;28;20507;-77
2021/08/19 06:55:24;;;;;;;6.93;3.05;;;;;;;15.28;100.00;100929.84;6249672;28;20049;-76
2021/08/19 06:58:26;;;;;;;5.88;3.28;;;;;;;15.28;100.00;100938.63;6249861;28;20053;-76
2021/08/19 07:01:28;;;;;;;5.80;3.30;;;;;;;15.35;100.00;100941.66;6249331;28;20050;-76
2021/08/19 07:04:30;;;;;;;5.88;3.47;;;;;;;15.36;100.00;100946.03;6247534;28;20053;-76
2021/08/19 07:07:31;;;;;;;4.60;3.03;;;;;;;15.33;100.00;100939.13;6247463;28;20049;-77
2021/08/19 07:10:32;;;;;;;7.85;3.63;;;;;;;15.34;100.00;100940.81;6247701;28;20053;-77
2021/08/19 07:13:34;;;;;;;8.18;3.30;;;;;;;15.29;100.00;100934.16;6247280;28;20045;-76
2021/08/19 07:16:37;;;;;;;6.43;3.25;;;;;;;15.23;100.00;100938.09;6247628;28;20057;-77
2021/08/19 07:19:38;;;;;;;5.57;3.47;;;;;;;15.16;100.00;100934.16;6249530;28;20059;-77
2021/08/19 07:22:44;;;;;;;7.13;3.30;;;;;;;15.14;100.00;100929.00;6249188;28;20052;-77
2021/08/19 07:25:45;;;;;;;5.95;3.25;;;;;;;15.17;100.00;100931.44;6249091;28;20046;-77
2021/08/19 07:28:47;;;;;;;5.32;3.20;;;;;;;15.15;100.00;100922.75;6249171;28;20057;-76
2021/08/19 07:31:49;;;;;;;4.85;2.58;;;;;;;15.13;100.00;100924.66;6249084;28;20448;-77
2021/08/19 07:34:51;;;;;;;5.75;3.38;;;;;;;15.16;100.00;100934.16;6248832;28;20057;-76
2021/08/19 07:37:54;;;;;;;4.53;3.15;;;;;;;15.18;100.00;100942.88;6243372;28;20049;-77
2021/08/19 07:40:55;;;;;;;6.47;3.20;;;;;;;15.20;100.00;100941.78;6258149;28;20056;-77
2021/08/19 07:43:56;;;;;;;4.72;3.20;;;;;;;15.23;100.00;100944.25;6264927;28;20041;-77
2021/08/19 07:46:59;;;;;;;7.75;3.67;;;;;;;15.25;100.00;100952.06;6272440;28;20496;-77
2021/08/19 07:50:01;;;;;;;5.97;3.67;;;;;;;15.18;100.00;100948.16;6273699;28;20052;-76
2021/08/19 07:53:02;;;;;;;5.65;3.60;;;;;;;15.10;100.00;100946.03;6273276;28;20049;-76
2021/08/19 07:56:04;;;;;;;6.75;3.75;;;;;;;15.05;100.00;100960.56;6273267;28;20488;-76
2021/08/19 07:59:05;;;;;;;6.60;4.10;;;;;;;14.98;100.00;100958.31;6273485;28;20052;-77
2021/08/19 08:02:08;;;;;;;7.43;3.75;;;;;;;14.97;100.00;100963.72;6265465;28;20049;-77
2021/08/19 08:05:09;;;;;;;8.73;4.38;;;;;;;14.96;100.00;100959.38;6266920;28;20057;-77
2021/08/19 08:08:11;;;;;;;7.63;3.90;;;;;;;14.95;100.00;100969.13;6273394;28;20064;-76
2021/08/19 08:11:13;;;;;;;8.27;4.50;;;;;;;14.89;100.00;100971.31;6247182;28;20053;-77
2021/08/19 08:14:14;;;;;;;6.82;3.92;;;;;;;14.82;100.00;100980.63;6234668;28;20049;-78
2021/08/19 08:17:18;;;;;;;7.13;4.35;;;;;;;14.80;100.00;100982.53;6233009;28;20520;-78
2021/08/19 08:20:20;;;;;;;7.10;4.60;;;;;;;14.76;100.00;100984.56;6232990;28;20058;-78
2021/08/19 08:23:21;;;;;;;7.68;3.85;;;;;;;14.75;100.00;100987.28;6229238;28;20133;-79
2021/08/19 08:26:24;;;;;;;4.47;3.40;;;;;;;14.74;100.00;100988.25;6249629;28;20048;-78
2021/08/19 08:29:26;;;;;;;6.32;4.43;;;;;;;14.74;100.00;100993.53;6245584;28;20049;-79
2021/08/19 08:32:29;;;;;;;7.75;4.47;;;;;;;14.83;100.00;100985.81;6240464;28;20419;-80
2021/08/19 08:35:33;;;;;;;7.35;4.45;;;;;;;14.76;100.00;100991.63;6243304;28;20045;-79
2021/08/19 08:38:35;;;;;;;6.43;4.18;;;;;;;14.75;100.00;100989.94;6247656;28;20045;-79
2021/08/19 08:41:39;;;;;;;9.20;4.93;;;;;;;14.73;100.00;100990.03;6254916;28;20045;-80
2021/08/19 08:44:41;;;;;;;5.63;3.67;;;;;;;14.77;100.00;100985.41;6249075;28;20432;-77
2021/08/19 08:47:44;;;;;;;8.38;5.03;;;;;;;14.80;100.00;100986.00;6248038;28;20045;-79
2021/08/19 08:50:47;;;;;;;7.88;4.38;;;;;;;14.86;100.00;100993.56;6248010;28;20045;-79
2021/08/19 08:53:48;;;;;;;8.82;5.18;;;;;;;14.95;100.00;100985.00;6247433;28;20048;-78
2021/08/19 08:56:49;;;;;;;7.57;4.55;;;;;;;14.97;100.00;100993.66;6256313;28;20053;-79
2021/08/19 08:59:51;;;;;;;6.68;4.32;;;;;;;15.07;100.00;100995.69;6272716;28;20551;-79
2021/08/19 09:02:53;;;;;;;6.13;4.13;;;;;;;15.17;100.00;100994.97;6273129;28;20041;-79
2021/08/19 09:05:55;;;;;;;7.75;4.50;;;;;;;15.29;100.00;100992.41;6252983;28;20467;-79
2021/08/19 09:08:56;;;;;;;7.90;4.47;;;;;;;15.33;100.00;100988.63;6248062;28;20081;-79
2021/08/19 09:12:01;;;;;;;10.65;5.68;;;;;;;15.41;100.00;100987.13;6243388;28;20045;-79
2021/08/19 09:15:09;;;;;;;8.80;5.00;;;;;;;15.46;100.00;100994.75;6229697;28;20053;-79
2021/08/19 09:18:12;;;;;;;7.32;4.43;;;;;;;15.48;100.00;100988.38;6236326;28;20045;-81
2021/08/19 09:21:19;;;;;;;8.23;4.95;;;;;;;15.53;100.00;100989.84;6248245;28;20056;-79
2021/08/19 09:24:23;;;;;;;9.50;4.93;;;;;;;15.55;100.00;100996.75;6247015;28;20045;-79
2021/08/19 09:27:24;;;;;;;9.38;5.47;;;;;;;15.62;100.00;100991.84;6247833;28;20054;-79
2021/08/19 09:30:28;;;;;;;10.80;5.32;;;;;;;15.61;100.00;100983.06;6224401;28;20049;-78
2021/08/19 09:33:33;;;;;;;8.48;5.22;;;;;;;15.54;100.00;100984.47;6224813;28;20041;-79
2021/08/19 09:36:35;;;;;;;8.23;4.75;;;;;;;15.58;100.00;100983.31;6246519;28;20056;-79
2021/08/19 09:39:39;;;;;;;8.77;5.28;;;;;;;15.67;100.00;100981.84;6258015;28;20045;-79
2021/08/19 09:42:40;;;;;;;11.52;5.55;;;;;;;15.72;100.00;100985.84;6247775;28;20106;-78
2021/08/19 09:45:46;;;;;;;12.02;6.10;;;;;;;15.73;100.00;100984.88;6238170;28;20428;-79
2021/08/19 09:48:49;;;;;;;10.55;5.13;;;;;;;15.76;100.00;100982.97;6222580;28;20424;-79
2021/08/19 09:52:02;;;;;;;10.57;4.18;;;;;;;15.72;100.00;100985.00;6223066;28;20046;-79
2021/08/19 09:55:20;;;;;;;8.82;5.18;;;;;;;15.85;100.00;100988.47;6228363;28;20711;-79
2021/08/19 09:58:33;;;;;;;7.87;4.87;;;;;;;15.76;100.00;100983.84;6242958;28;20519;-78
2021/08/19 10:01:35;;;;;;;12.35;5.38;;;;;;;15.70;100.00;100995.69;6222273;28;20050;-79
2021/08/19 10:04:38;;;;;;;10.27;5.32;;;;;;;15.67;100.00;100987.13;6244317;28;20064;-80
2021/08/19 10:07:39;;;;;;;11.10;6.15;;;;;;;15.61;100.00;100979.56;6247403;28;20057;-78
2021/08/19 10:10:43;;;;;;;11.50;6.18;;;;;;;15.61;100.00;100980.41;6252338;28;20057;-77
2021/08/19 10:13:45;;;;;;;15.32;7.30;;;;;;;15.62;100.00;100975.97;6228268;28;20420;-80
2021/08/19 10:16:48;;;;;;;13.35;6.88;;;;;;;15.66;100.00;100972.19;6244475;28;20056;-78
2021/08/19 10:19:51;;;;;;;12.35;6.55;;;;;;;15.75;100.00;100978.63;6252486;28;20417;-79
2021/08/19 10:22:55;;;;;;;13.02;6.90;;;;;;;15.79;100.00;100973.00;6251870;28;20049;-80
2021/08/19 10:26:06;;;;;;;13.45;7.25;;;;;;;15.81;100.00;100973.75;6252017;28;20045;-80
2021/08/19 10:29:07;;;;;;;12.30;6.90;;;;;;;15.79;100.00;100970.34;6251559;28;20436;-79
2021/08/19 10:32:21;;;;;;;17.25;6.75;;;;;;;15.80;100.00;100974.69;6251817;28;20056;-80
2021/08/19 10:35:28;;;;;;;13.52;7.25;;;;;;;15.82;100.00;100971.94;6245302;28;20635;-80
2021/08/19 10:38:29;;;;;;;16.15;6.78;;;;;;;15.77;100.00;100966.97;6228810;28;20049;-80
2021/08/19 10:41:42;;;;;;;13.85;7.97;;;;;;;15.80;100.00;100968.53;6241469;28;20053;-81
2021/08/19 10:44:46;;;;;;;16.02;8.25;;;;;;;15.87;100.00;100970.66;6227615;28;20123;-80
2021/08/19 10:47:49;;;;;;;15.50;7.35;;;;;;;15.86;100.00;100970.78;6226075;28;20493;-79
2021/08/19 10:50:51;;;;;;;13.02;6.82;;;;;;;15.90;100.00;100969.59;6226296;28;20058;-79
2021/08/19 10:53:53;;;;;;;12.88;6.50;;;;;;;15.98;100.00;100964.56;6225895;28;20046;-79
2021/08/19 10:56:54;;;;;;;13.38;6.90;;;;;;;16.06;100.00;100964.84;6226725;28;20050;-80
2021/08/19 10:59:57;;;;;;;14.45;7.80;;;;;;;16.12;100.00;100967.06;6226693;28;20045;-78
2021/08/19 11:02:58;;;;;;;18.60;8.18;;;;;;;16.20;100.00;100959.38;6233336;28;20477;-78
2021/08/19 11:06:01;;;;;;;13.20;7.82;;;;;;;16.22;100.00;100964.59;6251858;28;20058;-79
2021/08/19 11:09:13;;;;;;;12.85;7.07;;;;;;;16.25;100.00;100953.75;6252017;28;20060;-79
2021/08/19 11:12:14;;;;;;;15.65;8.10;;;;;;;16.26;100.00;100963.41;6250533;28;20045;-78
2021/08/19 11:15:16;;;;;;;16.88;7.25;;;;;;;16.28;100.00;100960.66;6251455;28;20633;-78
2021/08/19 11:18:24;;;;;;;10.63;6.60;;;;;;;16.29;100.00;100962.34;6250771;28;20059;-78
2021/08/19 11:21:26;;;;;;;13.13;6.65;;;;;;;16.27;100.00;100965.09;6250307;28;20049;-78
2021/08/19 11:24:30;;;;;;;15.43;7.18;;;;;;;16.32;100.00;100964.75;6250509;28;20052;-78
2021/08/19 11:27:31;;;;;;;12.35;6.43;;;;;;;16.40;100.00;100959.75;6250961;28;20052;-79
2021/08/19 11:30:34;;;;;;;15.95;7.35;;;;;;;16.56;100.00;100956.78;6250136;28;20504;-79
2021/08/19 11:33:36;;;;;;;11.93;6.72;;;;;;;16.71;100.00;100953.84;6249939;28;20053;-79
2021/08/19 11:36:38;;;;;;;13.32;6.25;;;;;;;16.77;100.00;100957.84;6249628;28;20064;-77
2021/08/19 11:39:40;;;;;;;13.77;6.38;;;;;;;16.76;100.00;100957.94;6249944;28;20052;-78
2021/08/19 11:42:41;;;;;;;11.68;5.90;;;;;;;16.73;100.00;100957.22;6250707;28;20085;-79
2021/08/19 11:45:43;;;;;;;10.50;6.10;;;;;;;16.72;100.00;100960.84;6249577;28;20061;-78
2021/08/19 11:48:50;;;;;;;9.65;5.85;;;;;;;16.75;100.00;100957.09;6251070;28;20056;-79
2021/08/19 11:52:01;;;;;;;11.55;5.60;;;;;;;16.65;100.00;100964.03;6250279;28;20140;-80
2021/08/19 11:55:02;;;;;;;12.48;5.93;;;;;;;16.74;100.00;100968.69;6252436;28;20065;-77
2021/08/19 11:58:20;;;;;;;11.35;5.75;;;;;;;16.78;100.00;100966.66;6263882;28;20052;-85
2021/08/19 12:01:25;;;;;;;11.32;6.03;;;;;;;16.91;100.00;100962.09;6272681;28;20052;-79
2021/08/19 12:04:30;;;;;;;11.68;5.75;;;;;;;17.07;100.00;100961.75;6253052;28;20502;-79
2021/08/19 12:07:34;;;;;;;11.38;6.45;;;;;;;17.01;100.00;100960.44;6254730;28;20049;-77
2021/08/19 12:10:35;;;;;;;9.38;5.13;;;;;;;16.96;100.00;100960.78;6270627;28;20049;-78
2021/08/19 12:13:40;;;;;;;10.43;5.18;;;;;;;16.95;100.00;100964.41;6273232;28;20044;-78
2021/08/19 12:16:48;;;;;;;9.68;6.00;;;;;;;16.97;100.00;100959.81;6266504;28;20048;-78
2021/08/19 12:20:16;;;;;;;8.88;4.93;;;;;;;17.03;100.00;100963.81;6265158;28;20492;-80
2021/08/19 12:23:21;;;;;;;6.95;4.03;;;;;;;17.07;100.00;100962.59;6273030;28;20055;-77
2021/08/19 12:26:23;;;;;;;9.02;4.40;;;;;;;17.11;100.00;100961.41;6273360;28;20053;-78
2021/08/19 12:29:25;;;;;;;7.35;3.50;;;;;;;17.20;100.00;100960.69;6273648;28;20052;-78
2021/08/19 12:32:28;;;;;;;8.02;3.92;;;;;;;17.31;100.00;100959.03;6272729;28;20585;-79
2021/08/19 12:35:29;;;;;;;9.32;4.97;;;;;;;17.39;100.00;100956.59;6272757;28;20419;-80
2021/08/19 12:38:32;;;;;;;10.18;5.47;;;;;;;17.64;100.00;100958.19;6260172;28;20443;-77
2021/08/19 12:41:33;;;;;;;11.63;5.38;;;;;;;17.97;100.00;100958.16;6256736;28;20053;-78
2021/08/19 12:44:36;;;;;;;10.77;5.72;;;;;;;18.09;100.00;100952.81;6247487;28;20042;-77
2021/08/19 12:47:39;;;;;;;10.82;6.13;;;;;;;18.02;100.00;100955.09;6247435;28;20072;-74
2021/08/19 12:50:41;;;;;;;10.63;5.40;;;;;;;17.91;100.00;100949.84;6247307;28;20045;-76
2021/08/19 12:54:02;;;;;;;11.30;6.00;;;;;;;17.79;100.00;100956.13;6247464;28;20081;-78
2021/08/19 12:57:04;;;;;;;10.43;6.03;;;;;;;17.65;100.00;100950.06;6248829;28;20140;-78
2021/08/19 13:00:11;;;;;;;10.90;5.38;;;;;;;17.66;100.00;100949.09;6246983;28;20049;-75
2021/08/19 13:03:16;;;;;;;9.50;5.47;;;;;;;17.72;100.00;100947.78;6248137;28;20046;-78
2021/08/19 13:06:19;;;;;;;10.52;5.38;;;;;;;17.83;100.00;100946.94;6247574;28;20512;-79
2021/08/19 13:09:22;;;;;;;9.20;4.50;;;;;;;17.83;100.00;100954.91;6247639;28;20041;-76
2021/08/19 13:12:25;;;;;;;10.32;4.93;;;;;;;17.86;100.00;100957.34;6247600;28;20064;-78
2021/08/19 13:15:26;;;;;;;9.00;5.60;;;;;;;17.87;100.00;100951.88;6246934;28;20177;-76
2021/08/19 13:18:28;;;;;;;8.30;4.07;;;;;;;17.84;100.00;100954.78;6247697;28;20560;-76
2021/08/19 13:21:29;;;;;;;5.82;3.90;;;;;;;17.77;100.00;100958.91;6247613;28;20065;-78
2021/08/19 13:24:32;;;;;;;8.05;4.30;;;;;;;17.75;100.00;100959.03;6247685;28;20041;-76
2021/08/19 13:27:34;;;;;;;8.75;4.68;;;;;;;17.83;100.00;100965.56;6246832;28;20060;-77
2021/08/19 13:30:35;;;;;;;6.25;3.97;;;;;;;17.77;100.00;100966.06;6244124;28;20057;-79
2021/08/19 13:33:37;;;;;;;6.55;3.63;;;;;;;17.73;100.00;100968.94;6247334;28;20049;-77
2021/08/19 13:36:39;;;;;;;7.70;4.20;;;;;;;17.77;100.00;100955.41;6246744;28;20056;-76
2021/08/19 13:39:43;;;;;;;10.02;4.43;;;;;;;17.78;100.00;100960.59;6253416;28;20508;-76
2021/08/19 13:42:44;;;;;;;7.07;4.22;;;;;;;17.77;100.00;100966.06;6256394;28;20052;-76
2021/08/19 13:45:45;;;;;;;7.40;4.72;;;;;;;17.80;100.00;100957.81;6266681;28;20041;-79
2021/08/19 13:48:47;;;;;;;6.88;4.55;;;;;;;17.78;100.00;100963.25;6276960;28;20059;-79
2021/08/19 13:51:48;;;;;;;7.95;4.43;;;;;;;17.84;100.00;100957.44;6260893;28;20057;-77
2021/08/19 13:54:51;;;;;;;4.97;3.33;;;;;;;17.79;100.00;100961.44;6238615;28;20046;-78
2021/08/19 13:57:52;;;;;;;6.55;4.18;;;;;;;17.80;100.00;100979.09;6254830;28;20092;-77